Time;durP1;ratioP1;P1;durP2;ratioP2;P2;SDS_P1;SDS_P2;PMS_P1;PMS_P2;Temp;Humidity;BMP_temperature;BMP_pressure;BME280_temperature;BME280_humidity;BME280_pressure;Samples;Min_cycle;Max_cycle;Signal;HPM_P1;HPM_P2
2024/01/14 00:02:06;;;;;;;35.95;13.00;;;-2.50;99.90;;;;;;4979009;28;20819;-75
2024/01/14 00:04:34;;;;;;;27.73;13.15;;;-2.50;99.90;;;;;;4983307;28;20254;-72
2024/01/14 00:07:02;;;;;;;34.25;13.52;;;-2.60;99.90;;;;;;4983868;28;20257;-73
2024/01/14 00:09:30;;;;;;;34.40;13.40;;;-2.60;99.90;;;;;;4984727;28;20290;-73
2024/01/14 00:11:58;;;;;;;42.55;17.80;;;-2.50;99.90;;;;;;4970660;28;20330;-75
2024/01/14 00:14:27;;;;;;;37.33;14.70;;;-2.50;99.90;;;;;;4981853;28;20826;-74
2024/01/14 00:16:55;;;;;;;41.72;16.27;;;-2.50;99.90;;;;;;4985312;28;20223;-77
2024/01/14 00:19:23;;;;;;;38.70;14.63;;;-2.60;99.90;;;;;;4985743;28;20234;-75
2024/01/14 00:21:52;;;;;;;33.67;15.43;;;-2.60;99.90;;;;;;4985161;28;20214;-77
2024/01/14 00:24:20;;;;;;;40.38;15.25;;;-2.60;99.90;;;;;;4984413;28;20657;-75
2024/01/14 00:26:48;;;;;;;38.88;16.52;;;-2.60;99.90;;;;;;4985136;28;20257;-75
2024/01/14 00:29:16;;;;;;;33.67;14.15;;;-2.60;99.90;;;;;;4984970;28;20203;-78
2024/01/14 00:31:46;;;;;;;34.50;14.52;;;-2.50;99.90;;;;;;4980607;28;20268;-75
2024/01/14 00:34:14;;;;;;;34.53;13.45;;;-2.40;99.90;;;;;;4967690;28;20286;-76
2024/01/14 00:36:42;;;;;;;45.38;17.80;;;-2.40;99.90;;;;;;4972145;28;20228;-75
2024/01/14 00:39:11;;;;;;;38.38;15.43;;;-2.30;99.90;;;;;;4968917;28;20228;-76
2024/01/14 00:41:39;;;;;;;41.47;16.67;;;-2.30;99.90;;;;;;4970077;28;20204;-75
2024/01/14 00:44:07;;;;;;;37.42;14.45;;;-2.30;99.90;;;;;;4976431;28;20250;-77
2024/01/14 00:46:35;;;;;;;35.90;15.32;;;-2.30;99.90;;;;;;4962922;28;20256;-74
2024/01/14 00:49:04;;;;;;;36.60;15.00;;;-2.30;99.90;;;;;;4963802;28;20291;-75
2024/01/14 00:51:32;;;;;;;38.95;14.63;;;-2.40;99.90;;;;;;4967894;28;20745;-73
2024/01/14 00:54:01;;;;;;;46.22;16.73;;;-2.30;99.90;;;;;;4967430;28;20230;-73
2024/01/14 00:56:29;;;;;;;37.75;15.77;;;-2.40;99.90;;;;;;4976827;28;20247;-73
2024/01/14 00:58:57;;;;;;;36.97;14.38;;;-2.30;99.90;;;;;;4956575;28;20209;-72
2024/01/14 01:01:25;;;;;;;46.40;17.00;;;-2.30;99.90;;;;;;4966594;28;20255;-73
2024/01/14 01:03:53;;;;;;;40.55;16.20;;;-2.30;99.90;;;;;;4966339;28;20295;-74
2024/01/14 01:06:22;;;;;;;45.05;16.90;;;-2.30;99.90;;;;;;4984060;28;20202;-72
2024/01/14 01:08:50;;;;;;;41.20;17.80;;;-2.40;99.90;;;;;;4978994;28;20215;-73
2024/01/14 01:11:18;;;;;;;51.40;17.23;;;-2.40;99.90;;;;;;4981337;28;20741;-72
2024/01/14 01:13:46;;;;;;;35.45;15.98;;;-2.50;99.90;;;;;;4975570;28;20222;-76
2024/01/14 01:16:14;;;;;;;39.00;15.70;;;-2.60;99.90;;;;;;4967609;28;20312;-73
2024/01/14 01:18:42;;;;;;;49.28;15.73;;;-2.70;99.90;;;;;;4976575;28;20229;-73
2024/01/14 01:21:11;;;;;;;36.83;14.52;;;-2.80;99.90;;;;;;4981901;28;20216;-72
2024/01/14 01:23:40;;;;;;;46.03;16.23;;;-2.80;99.90;;;;;;4970319;28;20208;-73
2024/01/14 01:26:08;;;;;;;43.58;15.85;;;-2.80;99.90;;;;;;4967767;28;20207;-74
2024/01/14 01:28:36;;;;;;;42.10;14.73;;;-2.80;99.90;;;;;;4968217;28;20294;-73
2024/01/14 01:31:04;;;;;;;45.60;18.35;;;-2.80;99.90;;;;;;4971921;28;20230;-76
2024/01/14 01:33:33;;;;;;;44.17;15.35;;;-2.80;99.90;;;;;;4961809;28;20660;-73
2024/01/14 01:36:01;;;;;;;45.63;15.30;;;-2.80;99.90;;;;;;4985642;28;20223;-75
2024/01/14 01:38:29;;;;;;;45.97;15.80;;;-2.70;99.90;;;;;;4966433;28;20310;-76
2024/01/14 01:40:58;;;;;;;45.70;16.15;;;-2.70;99.90;;;;;;4977471;28;20207;-75
2024/01/14 01:43:26;;;;;;;37.30;15.38;;;-2.80;99.90;;;;;;4966898;28;20247;-76
2024/01/14 01:45:56;;;;;;;38.17;15.77;;;-2.80;99.90;;;;;;4954158;28;20766;-76
2024/01/14 01:48:25;;;;;;;50.45;18.02;;;-2.70;99.90;;;;;;4961641;28;20254;-75
2024/01/14 01:50:56;;;;;;;37.03;15.57;;;-2.60;99.90;;;;;;4952607;28;20240;-75
2024/01/14 01:53:25;;;;;;;46.33;15.63;;;-2.60;99.90;;;;;;4967094;28;20235;-74
2024/01/14 01:55:55;;;;;;;43.78;16.58;;;-2.60;99.90;;;;;;4958123;28;20223;-74
2024/01/14 01:58:24;;;;;;;42.10;18.98;;;-2.70;99.90;;;;;;4962278;28;20345;-75
2024/01/14 02:00:52;;;;;;;34.95;15.23;;;-2.70;99.90;;;;;;4984982;28;20553;-75
2024/01/14 02:03:21;;;;;;;39.17;14.23;;;-2.60;99.90;;;;;;4972479;28;20203;-74
2024/01/14 02:05:53;;;;;;;42.05;15.00;;;-2.70;99.90;;;;;;4969100;28;20283;-76
2024/01/14 02:08:22;;;;;;;44.15;14.10;;;-2.70;99.90;;;;;;4967758;28;20720;-76
2024/01/14 02:10:49;;;;;;;39.75;15.60;;;-2.60;99.90;;;;;;4977021;28;20289;-74
2024/01/14 02:13:17;;;;;;;45.63;15.32;;;-2.70;99.90;;;;;;4974581;28;20307;-74
2024/01/14 02:15:47;;;;;;;33.90;13.73;;;-2.70;99.90;;;;;;4968717;28;20281;-75
2024/01/14 02:18:15;;;;;;;40.38;14.93;;;-2.80;99.90;;;;;;4968494;28;20223;-74
2024/01/14 02:20:43;;;;;;;41.88;15.40;;;-2.90;99.90;;;;;;4968539;28;20234;-75
2024/01/14 02:23:15;;;;;;;39.83;15.20;;;-2.90;99.90;;;;;;4972161;28;20209;-74
2024/01/14 02:25:46;;;;;;;36.20;14.77;;;-3.00;99.90;;;;;;4968323;28;20243;-75
2024/01/14 02:28:15;;;;;;;45.50;15.75;;;-3.00;99.90;;;;;;4968669;28;20802;-74
2024/01/14 02:30:44;;;;;;;39.15;17.50;;;-2.90;99.90;;;;;;4969916;28;20219;-74
2024/01/14 02:33:13;;;;;;;37.50;13.63;;;-3.00;99.90;;;;;;4969697;28;20210;-75
2024/01/14 02:35:42;;;;;;;36.13;13.35;;;-3.00;99.90;;;;;;4975158;28;20243;-74
2024/01/14 02:38:10;;;;;;;40.80;15.13;;;-3.00;99.90;;;;;;4971222;28;20224;-75
2024/01/14 02:40:38;;;;;;;41.60;15.98;;;-2.90;99.90;;;;;;4972080;28;20259;-75
2024/01/14 02:43:08;;;;;;;46.97;14.52;;;-2.90;99.90;;;;;;4969327;28;20872;-76
2024/01/14 02:45:36;;;;;;;36.72;15.40;;;-2.90;99.90;;;;;;4969355;28;20390;-76
2024/01/14 02:48:05;;;;;;;35.95;14.93;;;-3.00;99.90;;;;;;4968963;28;20210;-75
2024/01/14 02:50:33;;;;;;;44.95;16.08;;;-2.90;99.90;;;;;;4969185;28;20219;-75
2024/01/14 02:53:00;;;;;;;41.75;14.18;;;-2.90;99.90;;;;;;4969786;28;20218;-74
2024/01/14 02:55:28;;;;;;;43.63;14.93;;;-2.90;99.90;;;;;;4969616;28;20704;-74
2024/01/14 02:57:57;;;;;;;42.53;13.95;;;-3.00;99.90;;;;;;4969276;28;20268;-74
2024/01/14 03:00:27;;;;;;;46.90;18.20;;;-3.00;99.90;;;;;;4969144;28;20201;-74
2024/01/14 03:02:55;;;;;;;48.17;16.80;;;-3.10;99.90;;;;;;4969217;28;20210;-75
2024/01/14 03:05:23;;;;;;;40.30;15.43;;;-3.20;99.90;;;;;;4977178;28;20225;-75
2024/01/14 03:07:51;;;;;;;43.78;15.35;;;-3.20;99.90;;;;;;4971253;28;20204;-73
2024/01/14 03:10:19;;;;;;;36.10;13.90;;;-3.20;99.90;;;;;;4967283;28;20235;-75
2024/01/14 03:12:47;;;;;;;52.13;17.35;;;-3.20;99.90;;;;;;4953401;29;20243;-74
2024/01/14 03:15:15;;;;;;;51.85;15.63;;;-3.20;99.90;;;;;;4968554;28;20228;-74
2024/01/14 03:17:44;;;;;;;37.42;13.75;;;-3.20;99.90;;;;;;4984535;28;20232;-75
2024/01/14 03:20:12;;;;;;;40.35;15.98;;;-3.20;99.90;;;;;;4981901;28;20217;-74
2024/01/14 03:22:40;;;;;;;37.30;14.10;;;-3.10;99.90;;;;;;4969801;28;20206;-75
2024/01/14 03:25:09;;;;;;;43.97;14.05;;;-3.20;99.90;;;;;;4969978;28;20838;-74
2024/01/14 03:27:37;;;;;;;39.58;14.23;;;-3.20;99.90;;;;;;4970164;28;20233;-74
2024/01/14 03:30:06;;;;;;;42.30;16.35;;;-3.20;99.90;;;;;;4968974;28;20203;-73
2024/01/14 03:32:34;;;;;;;39.15;14.82;;;-3.20;99.90;;;;;;4972855;28;20203;-72
2024/01/14 03:35:04;;;;;;;37.60;15.60;;;-3.20;99.90;;;;;;4973772;28;20783;-73
2024/01/14 03:37:32;;;;;;;48.10;18.92;;;-3.10;99.90;;;;;;4974111;28;20207;-73
2024/01/14 03:40:01;;;;;;;40.72;15.27;;;-3.10;99.90;;;;;;4986000;28;20240;-74
2024/01/14 03:42:29;;;;;;;49.35;16.73;;;-3.10;99.90;;;;;;4990080;28;20209;-73
2024/01/14 03:44:57;;;;;;;38.95;14.40;;;-3.20;99.90;;;;;;4986567;28;20318;-76
2024/01/14 03:47:25;;;;;;;45.35;16.60;;;-3.20;99.90;;;;;;4992986;28;20220;-74
2024/01/14 03:49:53;;;;;;;47.65;17.98;;;-3.30;99.90;;;;;;4983767;28;20206;-74
2024/01/14 03:52:22;;;;;;;54.25;19.20;;;-3.30;99.90;;;;;;4981803;28;20232;-74
2024/01/14 03:54:50;;;;;;;42.90;17.83;;;-3.30;99.90;;;;;;4989378;28;20228;-76
2024/01/14 03:57:18;;;;;;;44.03;15.27;;;-3.30;99.90;;;;;;4983133;28;20656;-73
2024/01/14 03:59:46;;;;;;;46.95;16.77;;;-3.40;99.90;;;;;;4980392;28;20231;-74
2024/01/14 04:02:14;;;;;;;48.95;15.90;;;-3.40;99.90;;;;;;4979176;28;20243;-74
2024/01/14 04:04:42;;;;;;;43.53;16.45;;;-3.40;99.90;;;;;;4974378;28;20294;-74
2024/01/14 04:07:10;;;;;;;43.90;15.98;;;-3.40;99.90;;;;;;4984567;28;20201;-74
2024/01/14 04:09:40;;;;;;;37.30;15.25;;;-3.40;99.90;;;;;;4988657;28;20246;-74
2024/01/14 04:12:08;;;;;;;42.45;15.50;;;-3.40;99.90;;;;;;4972821;28;20319;-75
2024/01/14 04:14:36;;;;;;;41.90;16.35;;;-3.30;99.90;;;;;;4972795;28;20234;-74
2024/01/14 04:17:04;;;;;;;49.75;18.48;;;-3.20;99.90;;;;;;4980022;28;20203;-73
2024/01/14 04:19:32;;;;;;;32.75;13.88;;;-3.10;99.90;;;;;;4984910;28;20323;-74
2024/01/14 04:22:00;;;;;;;42.10;15.82;;;-3.10;99.90;;;;;;4971632;28;20212;-75
2024/01/14 04:24:28;;;;;;;41.72;14.13;;;-3.10;99.90;;;;;;4971555;28;20263;-74
2024/01/14 04:26:57;;;;;;;32.15;13.73;;;-3.10;99.90;;;;;;4972246;28;20218;-74
2024/01/14 04:29:25;;;;;;;53.80;18.95;;;-3.10;99.90;;;;;;4971937;28;20235;-73
2024/01/14 04:31:53;;;;;;;48.83;17.25;;;-3.10;99.90;;;;;;4972280;28;20650;-74
2024/01/14 04:34:21;;;;;;;50.13;19.17;;;-3.10;99.90;;;;;;4971713;28;20243;-75
2024/01/14 04:36:49;;;;;;;40.40;14.98;;;-3.10;99.90;;;;;;4972138;28;20231;-74
2024/01/14 04:39:17;;;;;;;44.13;16.42;;;-3.10;99.90;;;;;;4971624;28;20314;-75
2024/01/14 04:41:45;;;;;;;40.63;14.98;;;-3.10;99.90;;;;;;4971703;28;20237;-74
2024/01/14 04:44:14;;;;;;;34.60;14.02;;;-3.10;99.90;;;;;;4972378;28;20232;-75
2024/01/14 04:46:43;;;;;;;43.95;15.60;;;-3.20;99.90;;;;;;4990762;28;21013;-74
2024/01/14 04:49:11;;;;;;;49.35;18.75;;;-3.30;99.90;;;;;;4963502;28;20247;-74
2024/01/14 04:51:39;;;;;;;42.17;14.70;;;-3.30;99.90;;;;;;4970879;28;20229;-74
2024/01/14 04:54:08;;;;;;;39.22;17.15;;;-3.30;99.90;;;;;;4970595;28;20231;-74
2024/01/14 04:56:36;;;;;;;42.50;15.98;;;-3.20;99.90;;;;;;4970945;28;20729;-74
2024/01/14 04:59:04;;;;;;;47.97;16.23;;;-3.30;99.90;;;;;;4970396;28;20263;-74
2024/01/14 05:01:33;;;;;;;44.72;15.55;;;-3.30;99.90;;;;;;4970775;28;20209;-74
2024/01/14 05:04:02;;;;;;;43.83;15.48;;;-3.20;99.90;;;;;;4970767;28;20243;-75
2024/01/14 05:06:31;;;;;;;42.40;15.15;;;-3.20;99.90;;;;;;4970983;28;20211;-74
2024/01/14 05:08:59;;;;;;;39.53;14.50;;;-3.20;99.90;;;;;;4970667;28;20214;-74
2024/01/14 05:11:27;;;;;;;33.13;11.75;;;-3.10;99.90;;;;;;4970823;28;20221;-74
2024/01/14 05:13:55;;;;;;;36.08;15.00;;;-3.20;99.90;;;;;;4970328;28;20211;-74
2024/01/14 05:16:23;;;;;;;42.05;16.20;;;-3.20;99.90;;;;;;4970914;28;20302;-74
2024/01/14 05:18:52;;;;;;;39.85;15.68;;;-3.20;99.90;;;;;;4970171;28;20236;-74
2024/01/14 05:21:20;;;;;;;45.63;16.30;;;-3.10;99.90;;;;;;4970139;28;20674;-74
2024/01/14 05:23:48;;;;;;;42.97;14.80;;;-3.10;99.90;;;;;;4970510;28;20213;-75
2024/01/14 05:26:17;;;;;;;39.80;14.32;;;-3.10;99.90;;;;;;4974312;28;20200;-76
2024/01/14 05:28:45;;;;;;;40.10;14.48;;;-3.10;99.90;;;;;;4989377;28;20562;-75
2024/01/14 05:31:13;;;;;;;36.53;14.85;;;-3.20;99.90;;;;;;4970075;28;20258;-74
2024/01/14 05:33:41;;;;;;;41.78;13.55;;;-3.20;99.90;;;;;;4970266;28;20354;-74
2024/01/14 05:36:10;;;;;;;44.85;14.10;;;-3.20;99.90;;;;;;4970078;28;20296;-74
2024/01/14 05:38:38;;;;;;;47.40;17.13;;;-3.20;99.90;;;;;;4969971;28;20218;-76
2024/01/14 05:41:06;;;;;;;48.13;17.27;;;-3.20;99.90;;;;;;4969566;28;20620;-75
2024/01/14 05:43:34;;;;;;;46.75;15.25;;;-3.10;99.90;;;;;;4969871;28;20932;-74
2024/01/14 05:46:02;;;;;;;44.55;16.55;;;-3.10;99.90;;;;;;4969872;28;20259;-74
2024/01/14 05:48:30;;;;;;;41.47;15.77;;;-3.20;99.90;;;;;;4969563;28;20761;-75
2024/01/14 05:50:59;;;;;;;39.63;15.32;;;-3.20;99.90;;;;;;4969461;28;20234;-74
2024/01/14 05:53:28;;;;;;;49.50;16.00;;;-3.20;99.90;;;;;;4969385;28;20216;-74
2024/01/14 05:55:57;;;;;;;48.42;17.90;;;-3.20;99.90;;;;;;4969201;28;20234;-74
2024/01/14 05:58:25;;;;;;;49.40;17.30;;;-3.20;99.90;;;;;;4968659;28;20215;-75
2024/01/14 06:00:53;;;;;;;48.00;16.55;;;-3.20;99.90;;;;;;4969206;28;20323;-74
2024/01/14 06:03:21;;;;;;;46.55;17.88;;;-3.20;99.90;;;;;;4969587;28;20242;-73
2024/01/14 06:05:49;;;;;;;49.60;17.92;;;-3.20;99.90;;;;;;4968138;28;20234;-73
2024/01/14 06:08:17;;;;;;;42.17;18.58;;;-3.20;99.90;;;;;;4969421;28;20223;-75
2024/01/14 06:10:47;;;;;;;46.60;19.17;;;-3.20;99.90;;;;;;4968889;28;20768;-74
2024/01/14 06:13:15;;;;;;;45.13;16.60;;;-3.20;99.90;;;;;;4967198;28;20214;-76
2024/01/14 06:15:43;;;;;;;50.28;16.48;;;-3.20;99.90;;;;;;4982277;28;20621;-75
2024/01/14 06:18:11;;;;;;;50.45;15.48;;;-3.20;99.90;;;;;;4977501;28;20214;-75
2024/01/14 06:20:39;;;;;;;48.72;17.13;;;-3.20;99.90;;;;;;4968795;28;20275;-74
2024/01/14 06:23:07;;;;;;;54.88;17.63;;;-3.30;99.90;;;;;;4969232;28;20653;-76
2024/01/14 06:25:35;;;;;;;50.65;16.52;;;-3.40;99.90;;;;;;4969046;28;20237;-76
2024/01/14 06:28:05;;;;;;;48.00;18.08;;;-3.30;99.90;;;;;;4969431;28;20213;-74
2024/01/14 06:30:33;;;;;;;45.97;16.52;;;-3.40;99.90;;;;;;4969080;28;20291;-76
2024/01/14 06:33:01;;;;;;;47.58;16.42;;;-3.30;99.90;;;;;;4968998;28;20236;-75
2024/01/14 06:35:29;;;;;;;46.50;15.98;;;-3.40;99.90;;;;;;4968967;28;20228;-74
2024/01/14 06:37:57;;;;;;;52.55;19.48;;;-3.40;99.90;;;;;;4968836;28;20248;-75
2024/01/14 06:40:25;;;;;;;47.60;15.95;;;-3.50;99.90;;;;;;4968452;28;20232;-76
2024/01/14 06:43:04;;;;;;;48.95;16.08;;;-3.50;99.90;;;;;;4968735;28;20668;-75
2024/01/14 06:45:32;;;;;;;58.28;19.92;;;-3.50;99.90;;;;;;4969316;28;20239;-74
2024/01/14 06:48:00;;;;;;;47.50;16.23;;;-3.40;99.90;;;;;;4969263;28;20236;-73
2024/01/14 06:50:28;;;;;;;44.90;16.02;;;-3.40;99.90;;;;;;4968941;28;20208;-74
2024/01/14 06:52:56;;;;;;;45.92;17.05;;;-3.30;99.90;;;;;;4969242;28;20952;-74
2024/01/14 06:55:24;;;;;;;38.92;16.15;;;-3.20;99.90;;;;;;4971357;28;20712;-73
2024/01/14 06:57:53;;;;;;;50.83;15.77;;;-3.20;99.90;;;;;;4971708;28;20210;-74
2024/01/14 07:00:22;;;;;;;42.92;15.98;;;-3.20;99.90;;;;;;4968857;28;20278;-74
2024/01/14 07:02:50;;;;;;;48.13;14.88;;;-3.20;99.90;;;;;;4968789;28;20297;-74
2024/01/14 07:05:18;;;;;;;41.10;17.35;;;-3.20;99.90;;;;;;4968757;28;20233;-74
2024/01/14 07:07:46;;;;;;;44.40;17.08;;;-3.20;99.90;;;;;;4972434;28;20256;-74
2024/01/14 07:10:18;;;;;;;41.58;16.02;;;-3.20;99.90;;;;;;4970905;28;21063;-76
2024/01/14 07:12:46;;;;;;;42.95;16.88;;;-3.20;99.90;;;;;;4971471;28;20317;-74
2024/01/14 07:15:13;;;;;;;39.92;14.32;;;-3.20;99.90;;;;;;4971795;28;20232;-75
2024/01/14 07:17:42;;;;;;;37.28;13.77;;;-3.10;99.90;;;;;;4964720;28;20202;-74
2024/01/14 07:20:26;;;;;;;40.58;15.63;;;-3.20;99.90;;;;;;4965130;28;20233;-75
2024/01/14 07:22:54;;;;;;;43.17;15.20;;;-3.10;99.90;;;;;;4971572;28;20594;-75
2024/01/14 07:25:42;;;;;;;29.90;13.30;;;-3.20;99.90;;;;;;4971585;28;20242;-74
2024/01/14 07:28:10;;;;;;;39.03;14.02;;;-3.10;99.90;;;;;;4971307;28;20205;-74
2024/01/14 07:30:38;;;;;;;36.13;15.68;;;-3.20;99.90;;;;;;4971028;28;20208;-76
2024/01/14 07:33:07;;;;;;;34.85;13.77;;;-3.20;99.90;;;;;;4971420;28;20300;-75
2024/01/14 07:35:35;;;;;;;39.78;15.23;;;-3.30;99.90;;;;;;4971204;28;20674;-74
2024/01/14 07:38:04;;;;;;;44.90;15.55;;;-3.20;99.90;;;;;;4970948;28;20458;-74
2024/01/14 07:40:32;;;;;;;39.28;14.40;;;-3.10;99.90;;;;;;4971636;28;20234;-74
2024/01/14 07:42:59;;;;;;;33.78;14.18;;;-3.00;99.90;;;;;;4972011;28;20302;-74
2024/01/14 07:45:27;;;;;;;36.58;12.88;;;-3.10;99.90;;;;;;4972002;28;20235;-74
2024/01/14 07:47:55;;;;;;;38.72;14.70;;;-3.10;99.90;;;;;;4972082;28;20208;-74
2024/01/14 07:50:25;;;;;;;42.45;14.52;;;-3.20;99.90;;;;;;4971223;28;20269;-74
2024/01/14 07:52:53;;;;;;;35.83;14.75;;;-3.30;99.90;;;;;;4971692;28;20213;-75
2024/01/14 07:55:21;;;;;;;43.58;15.23;;;-3.20;99.90;;;;;;4972071;28;20315;-74
2024/01/14 07:57:49;;;;;;;37.78;14.05;;;-3.20;99.90;;;;;;4971799;28;20304;-76
2024/01/14 08:00:18;;;;;;;46.47;15.15;;;-3.20;99.90;;;;;;4971250;28;20223;-75
2024/01/14 08:02:45;;;;;;;42.20;14.73;;;-3.10;99.90;;;;;;4971735;28;20237;-74
2024/01/14 08:05:14;;;;;;;42.35;16.17;;;-3.00;99.90;;;;;;4963881;28;20234;-74
2024/01/14 08:07:44;;;;;;;43.10;16.75;;;-2.90;99.90;;;;;;4972144;28;20537;-74
2024/01/14 08:10:12;;;;;;;45.28;15.20;;;-2.90;99.90;;;;;;4971587;28;20258;-74
2024/01/14 08:12:40;;;;;;;43.72;16.83;;;-2.70;99.90;;;;;;4971971;28;20310;-76
2024/01/14 08:15:09;;;;;;;38.35;16.05;;;-2.70;99.90;;;;;;4972026;28;20255;-75
2024/01/14 08:17:38;;;;;;;41.95;16.15;;;-2.60;99.90;;;;;;4970581;28;20226;-74
2024/01/14 08:20:08;;;;;;;40.67;16.08;;;-2.50;99.90;;;;;;4971745;28;20211;-74
2024/01/14 08:22:36;;;;;;;35.05;13.95;;;-2.40;99.90;;;;;;4971743;28;20234;-74
2024/01/14 08:25:07;;;;;;;38.80;17.52;;;-2.40;99.90;;;;;;4971302;28;20230;-74
2024/01/14 08:27:35;;;;;;;39.03;15.88;;;-2.50;99.90;;;;;;4971802;28;20211;-78
2024/01/14 08:30:05;;;;;;;40.45;15.73;;;-2.50;99.90;;;;;;4971017;28;20325;-76
2024/01/14 08:32:34;;;;;;;36.33;15.05;;;-2.50;99.90;;;;;;4971623;28;20299;-74
2024/01/14 08:35:02;;;;;;;39.78;14.88;;;-2.40;99.90;;;;;;4971311;28;20231;-75
2024/01/14 08:37:30;;;;;;;43.13;15.88;;;-2.40;99.90;;;;;;4971284;28;20230;-76
2024/01/14 08:39:58;;;;;;;40.28;15.93;;;-2.30;99.90;;;;;;4970731;28;20786;-76
2024/01/14 08:42:27;;;;;;;41.05;16.60;;;-2.20;99.90;;;;;;4971463;28;20249;-75
2024/01/14 08:44:55;;;;;;;38.92;15.02;;;-2.20;99.90;;;;;;4971525;28;20246;-75
2024/01/14 08:47:23;;;;;;;40.10;16.42;;;-2.10;99.90;;;;;;4971801;28;20270;-74
2024/01/14 08:49:51;;;;;;;36.45;14.82;;;-2.00;99.90;;;;;;4971626;28;20302;-74
2024/01/14 08:52:19;;;;;;;38.45;15.05;;;-1.90;99.90;;;;;;4971586;28;20686;-74
2024/01/14 08:54:47;;;;;;;39.47;17.08;;;-1.90;99.90;;;;;;4971458;28;20331;-76
2024/01/14 08:57:15;;;;;;;45.80;17.70;;;-1.80;99.90;;;;;;4971211;28;20651;-75
2024/01/14 08:59:44;;;;;;;40.83;16.80;;;-1.70;99.90;;;;;;4970900;28;20216;-75
2024/01/14 09:02:12;;;;;;;38.42;15.65;;;-1.60;99.90;;;;;;4971058;28;20298;-74
2024/01/14 09:04:40;;;;;;;41.55;19.60;;;-1.40;99.90;;;;;;4971013;28;20736;-75
2024/01/14 09:07:09;;;;;;;39.80;16.83;;;-1.30;99.90;;;;;;4970823;28;20598;-76
2024/01/14 09:09:36;;;;;;;44.47;18.50;;;-1.30;99.90;;;;;;4970887;28;20215;-77
2024/01/14 09:12:05;;;;;;;40.55;17.50;;;-1.30;99.90;;;;;;4970458;28;20731;-75
2024/01/14 09:14:33;;;;;;;44.88;19.20;;;-1.20;99.90;;;;;;4970525;28;21000;-75
2024/01/14 09:17:02;;;;;;;41.35;17.55;;;-1.20;99.90;;;;;;4970577;28;20733;-75
2024/01/14 09:19:30;;;;;;;41.63;16.17;;;-1.20;99.90;;;;;;4970238;28;20299;-74
2024/01/14 09:21:58;;;;;;;44.88;18.77;;;-1.10;99.90;;;;;;4970011;28;20259;-74
2024/01/14 09:24:27;;;;;;;40.17;18.00;;;-1.10;99.90;;;;;;4970634;28;20234;-75
2024/01/14 09:26:55;;;;;;;39.78;17.55;;;-1.10;99.90;;;;;;4969547;28;21023;-74
2024/01/14 09:29:23;;;;;;;40.65;16.35;;;-1.10;99.90;;;;;;4969168;28;20295;-75
2024/01/14 09:31:51;;;;;;;41.22;17.88;;;-1.20;99.90;;;;;;4966247;28;20227;-74
2024/01/14 09:34:20;;;;;;;40.90;17.58;;;-1.20;99.90;;;;;;4978916;28;20226;-76
2024/01/14 09:36:48;;;;;;;37.25;16.40;;;-1.20;99.90;;;;;;4984977;28;20208;-76
2024/01/14 09:39:16;;;;;;;43.25;17.75;;;-1.10;99.90;;;;;;4984607;28;20868;-71
2024/01/14 09:42:00;;;;;;;43.28;18.60;;;-1.00;99.90;;;;;;4982987;28;20226;-75
2024/01/14 09:44:28;;;;;;;40.80;19.00;;;-0.80;99.90;;;;;;4963609;28;20758;-71
2024/01/14 09:46:58;;;;;;;47.05;18.50;;;-0.70;99.90;;;;;;4970056;28;20690;-74
2024/01/14 09:49:27;;;;;;;41.17;18.98;;;-0.60;99.90;;;;;;4970045;28;20780;-72
2024/01/14 09:51:56;;;;;;;43.42;17.05;;;-0.60;99.90;;;;;;4951345;28;20207;-73
2024/01/14 09:54:24;;;;;;;39.75;16.92;;;-0.60;99.90;;;;;;4983393;28;20222;-74
2024/01/14 09:56:53;;;;;;;43.65;17.77;;;-0.40;99.90;;;;;;4988049;28;20203;-75
2024/01/14 09:59:22;;;;;;;36.05;15.40;;;-0.30;99.90;;;;;;4962592;28;20220;-72
2024/01/14 10:01:52;;;;;;;38.00;15.88;;;-0.20;99.90;;;;;;4968730;28;20315;-74
2024/01/14 10:04:21;;;;;;;44.75;20.23;;;-0.20;99.90;;;;;;4990007;28;20576;-73
2024/01/14 10:06:50;;;;;;;38.58;17.00;;;-0.30;99.90;;;;;;4974768;28;20696;-73
2024/01/14 10:09:18;;;;;;;39.80;17.52;;;-0.40;99.90;;;;;;4971537;28;20207;-73
2024/01/14 10:11:47;;;;;;;43.08;17.92;;;-0.40;99.90;;;;;;4970276;28;20211;-75
2024/01/14 10:14:16;;;;;;;40.05;17.67;;;-0.60;99.90;;;;;;4971229;28;20235;-72
2024/01/14 10:16:44;;;;;;;45.40;17.20;;;-0.50;99.90;;;;;;4984858;28;20679;-73
2024/01/14 10:19:22;;;;;;;37.85;15.85;;;-0.60;99.90;;;;;;4976810;28;20576;-74
2024/01/14 10:21:55;;;;;;;38.25;16.40;;;-0.70;99.90;;;;;;4979704;28;20215;-73
2024/01/14 10:24:49;;;;;;;39.55;17.25;;;-0.70;99.90;;;;;;4985565;28;20225;-74
2024/01/14 10:27:17;;;;;;;36.45;15.63;;;-0.60;99.90;;;;;;4978302;28;20216;-76
2024/01/14 10:30:05;;;;;;;38.65;16.60;;;-0.50;99.90;;;;;;4970492;28;20200;-74
2024/01/14 10:32:34;;;;;;;38.35;17.73;;;-0.10;99.90;;;;;;4970090;28;20678;-75
2024/01/14 10:35:25;;;;;;;43.05;16.48;;;0.10;99.90;;;;;;4980668;28;20227;-74
2024/01/14 10:37:55;;;;;;;41.35;16.67;;;0.40;99.90;;;;;;4967083;28;20204;-74
2024/01/14 10:40:23;;;;;;;38.03;16.02;;;0.80;99.90;;;;;;4963026;28;20965;-74
2024/01/14 10:42:52;;;;;;;34.72;16.33;;;1.30;99.90;;;;;;4977228;28;20306;-73
2024/01/14 10:45:20;;;;;;;37.15;15.98;;;1.60;98.70;;;;;;4974523;28;20228;-72
2024/01/14 10:47:51;;;;;;;35.22;17.00;;;1.80;98.50;;;;;;4975379;28;20207;-74
2024/01/14 10:50:19;;;;;;;45.38;17.60;;;1.80;98.10;;;;;;4977345;28;20206;-73
2024/01/14 10:52:54;;;;;;;39.47;17.67;;;1.80;97.00;;;;;;4979044;28;20667;-75
2024/01/14 10:55:34;;;;;;;40.10;18.85;;;1.80;97.60;;;;;;4984545;28;20606;-73
2024/01/14 10:58:04;;;;;;;39.90;18.20;;;1.80;96.90;;;;;;4977052;28;20295;-73
2024/01/14 11:00:36;;;;;;;37.63;16.60;;;1.80;97.20;;;;;;4975453;28;20463;-75
2024/01/14 11:03:06;;;;;;;38.38;18.77;;;1.80;96.90;;;;;;4977253;28;20574;-76
2024/01/14 11:05:36;;;;;;;33.85;17.50;;;1.70;96.20;;;;;;4978785;28;20226;-76
2024/01/14 11:08:05;;;;;;;32.45;15.93;;;1.50;96.70;;;;;;4975605;28;20283;-75
2024/01/14 11:10:35;;;;;;;38.58;18.02;;;1.60;96.80;;;;;;4957320;28;20221;-74
2024/01/14 11:13:16;;;;;;;35.42;16.77;;;1.60;96.10;;;;;;4967560;28;20206;-76
2024/01/14 11:15:52;;;;;;;33.28;15.73;;;1.60;96.00;;;;;;4959664;28;20227;-75
2024/01/14 11:18:25;;;;;;;40.25;17.73;;;1.40;96.50;;;;;;4963298;28;20202;-75
2024/01/14 11:21:01;;;;;;;38.55;18.55;;;1.30;97.30;;;;;;4962297;28;20209;-74
2024/01/14 11:23:49;;;;;;;37.92;15.80;;;1.20;97.30;;;;;;4968016;28;20227;-73
2024/01/14 11:26:19;;;;;;;33.95;16.15;;;1.20;97.00;;;;;;4953542;28;20253;-73
2024/01/14 11:28:47;;;;;;;37.92;15.18;;;0.90;96.80;;;;;;4972531;28;20806;-76
2024/01/14 11:31:15;;;;;;;38.10;17.02;;;0.80;97.80;;;;;;4969842;28;20233;-76
2024/01/14 11:33:46;;;;;;;36.58;16.90;;;0.80;97.80;;;;;;4971951;28;20202;-77
2024/01/14 11:36:35;;;;;;;39.55;16.77;;;0.80;97.60;;;;;;4963412;28;20209;-75
2024/01/14 11:39:05;;;;;;;38.20;18.00;;;1.00;97.90;;;;;;4967871;28;20689;-75
2024/01/14 11:41:35;;;;;;;47.85;17.05;;;1.10;98.00;;;;;;4959753;28;20308;-75
2024/01/14 11:44:05;;;;;;;37.47;16.40;;;1.20;98.00;;;;;;4966855;28;20263;-77
2024/01/14 11:46:36;;;;;;;41.72;16.80;;;1.30;97.60;;;;;;4966252;28;20906;-74
2024/01/14 11:49:07;;;;;;;37.90;16.57;;;1.50;97.10;;;;;;4976176;28;20262;-76
2024/01/14 11:51:57;;;;;;;40.15;17.10;;;1.50;96.00;;;;;;4969613;28;20448;-71
2024/01/14 11:54:26;;;;;;;35.80;16.73;;;1.30;96.90;;;;;;4979018;28;20986;-72
2024/01/14 11:56:55;;;;;;;40.28;16.30;;;1.20;97.50;;;;;;4971132;28;20632;-74
2024/01/14 11:59:23;;;;;;;38.97;16.23;;;1.20;97.60;;;;;;4976556;28;20302;-76
2024/01/14 12:02:15;;;;;;;39.25;16.13;;;1.10;96.80;;;;;;4972454;28;20224;-74
2024/01/14 12:04:44;;;;;;;34.90;16.65;;;1.10;97.20;;;;;;4972499;28;20611;-75
2024/01/14 12:07:24;;;;;;;34.95;16.98;;;1.10;97.20;;;;;;4966674;28;20235;-73
2024/01/14 12:09:53;;;;;;;37.67;15.73;;;1.20;96.80;;;;;;4971537;28;20719;-74
2024/01/14 12:12:26;;;;;;;35.25;16.15;;;1.00;96.50;;;;;;4972475;28;20221;-74
2024/01/14 12:14:54;;;;;;;34.53;15.73;;;0.80;96.90;;;;;;4970763;28;20220;-74
2024/01/14 12:17:23;;;;;;;34.92;15.80;;;1.00;97.30;;;;;;4975244;28;20267;-73
2024/01/14 12:19:57;;;;;;;35.13;15.57;;;1.00;96.40;;;;;;4973881;28;20208;-74
2024/01/14 12:22:25;;;;;;;39.38;16.40;;;1.00;96.70;;;;;;4965750;28;20220;-75
2024/01/14 12:24:53;;;;;;;39.97;17.80;;;1.00;96.60;;;;;;4971169;28;20229;-76
2024/01/14 12:27:21;;;;;;;36.17;15.57;;;1.00;96.90;;;;;;4971641;28;20915;-74
2024/01/14 12:29:51;;;;;;;35.75;16.13;;;1.10;97.10;;;;;;4970906;28;20256;-73
2024/01/14 12:32:19;;;;;;;38.50;17.35;;;1.20;97.40;;;;;;4980289;28;20233;-74
2024/01/14 12:34:49;;;;;;;36.15;16.38;;;1.30;96.50;;;;;;4984039;28;20232;-75
2024/01/14 12:37:18;;;;;;;35.38;16.10;;;1.40;95.80;;;;;;4971729;28;20226;-73
2024/01/14 12:39:47;;;;;;;35.85;17.20;;;1.30;96.20;;;;;;4971042;28;20272;-74